sensor_id;sensor_type;location;lat;lon;timestamp;P1;durP1;ratioP1;P2;durP2;ratioP2
9986;SDS011;5033;46.310;11.214;2023-02-01T00:01:24;3.00;;;2.80;;
9986;SDS011;5033;46.310;11.214;2023-02-01T00:03:51;2.88;;;2.67;;
9986;SDS011;5033;46.310;11.214;2023-02-01T00:06:18;3.20;;;3.00;;
9986;SDS011;5033;46.310;11.214;2023-02-01T00:08:45;3.00;;;2.80;;
9986;SDS011;5033;46.310;11.214;2023-02-01T00:11:12;3.38;;;3.17;;
9986;SDS011;5033;46.310;11.214;2023-02-01T00:13:40;3.50;;;3.30;;
9986;SDS011;5033;46.310;11.214;2023-02-01T00:16:10;3.05;;;2.83;;
9986;SDS011;5033;46.310;11.214;2023-02-01T00:18:39;3.30;;;3.10;;
9986;SDS011;5033;46.310;11.214;2023-02-01T00:21:06;2.92;;;2.80;;
9986;SDS011;5033;46.310;11.214;2023-02-01T00:23:34;3.08;;;2.88;;
9986;SDS011;5033;46.310;11.214;2023-02-01T00:26:02;3.25;;;3.05;;
9986;SDS011;5033;46.310;11.214;2023-02-01T00:28:30;3.15;;;2.95;;
9986;SDS011;5033;46.310;11.214;2023-02-01T00:30:59;3.15;;;2.92;;
9986;SDS011;5033;46.310;11.214;2023-02-01T00:33:29;2.95;;;2.80;;
9986;SDS011;5033;46.310;11.214;2023-02-01T00:35:57;2.90;;;2.70;;
9986;SDS011;5033;46.310;11.214;2023-02-01T00:38:24;3.15;;;2.95;;
9986;SDS011;5033;46.310;11.214;2023-02-01T00:40:52;3.35;;;3.15;;
9986;SDS011;5033;46.310;11.214;2023-02-01T00:43:20;3.03;;;2.92;;
9986;SDS011;5033;46.310;11.214;2023-02-01T00:45:47;3.25;;;3.05;;
9986;SDS011;5033;46.310;11.214;2023-02-01T00:48:14;3.47;;;3.17;;
9986;SDS011;5033;46.310;11.214;2023-02-01T00:50:42;3.38;;;3.17;;
9986;SDS011;5033;46.310;11.214;2023-02-01T00:53:10;3.15;;;2.95;;
9986;SDS011;5033;46.310;11.214;2023-02-01T00:55:37;3.28;;;3.08;;
9986;SDS011;5033;46.310;11.214;2023-02-01T00:58:05;2.85;;;2.75;;
9986;SDS011;5033;46.310;11.214;2023-02-01T01:00:34;3.00;;;2.80;;
9986;SDS011;5033;46.310;11.214;2023-02-01T01:03:02;3.42;;;3.22;;
9986;SDS011;5033;46.310;11.214;2023-02-01T01:05:43;3.50;;;3.30;;
9986;SDS011;5033;46.310;11.214;2023-02-01T01:08:10;3.00;;;2.88;;
9986;SDS011;5033;46.310;11.214;2023-02-01T01:10:37;3.45;;;3.25;;
9986;SDS011;5033;46.310;11.214;2023-02-01T01:13:05;3.13;;;3.03;;
9986;SDS011;5033;46.310;11.214;2023-02-01T01:15:35;3.35;;;3.15;;
9986;SDS011;5033;46.310;11.214;2023-02-01T01:18:03;3.10;;;2.83;;
9986;SDS011;5033;46.310;11.214;2023-02-01T01:20:30;3.28;;;3.10;;
9986;SDS011;5033;46.310;11.214;2023-02-01T01:22:58;2.95;;;2.78;;
9986;SDS011;5033;46.310;11.214;2023-02-01T01:25:25;3.08;;;2.88;;
9986;SDS011;5033;46.310;11.214;2023-02-01T01:27:52;3.05;;;2.85;;
9986;SDS011;5033;46.310;11.214;2023-02-01T01:30:19;3.20;;;3.00;;
9986;SDS011;5033;46.310;11.214;2023-02-01T01:32:47;2.70;;;2.55;;
9986;SDS011;5033;46.310;11.214;2023-02-01T01:35:14;3.20;;;3.00;;
9986;SDS011;5033;46.310;11.214;2023-02-01T01:37:41;2.72;;;2.63;;
9986;SDS011;5033;46.310;11.214;2023-02-01T01:40:11;3.00;;;2.83;;
9986;SDS011;5033;46.310;11.214;2023-02-01T01:42:39;2.83;;;2.70;;
9986;SDS011;5033;46.310;11.214;2023-02-01T01:45:08;2.97;;;2.78;;
9986;SDS011;5033;46.310;11.214;2023-02-01T01:47:47;3.00;;;2.80;;
9986;SDS011;5033;46.310;11.214;2023-02-01T01:50:18;3.30;;;3.10;;
9986;SDS011;5033;46.310;11.214;2023-02-01T01:52:47;2.70;;;2.60;;
9986;SDS011;5033;46.310;11.214;2023-02-01T01:55:19;2.78;;;2.67;;
9986;SDS011;5033;46.310;11.214;2023-02-01T01:57:48;2.90;;;2.80;;
9986;SDS011;5033;46.310;11.214;2023-02-01T02:00:20;2.92;;;2.83;;
9986;SDS011;5033;46.310;11.214;2023-02-01T02:02:51;2.83;;;2.72;;
9986;SDS011;5033;46.310;11.214;2023-02-01T02:05:21;2.90;;;2.72;;
9986;SDS011;5033;46.310;11.214;2023-02-01T02:07:49;3.40;;;3.20;;
9986;SDS011;5033;46.310;11.214;2023-02-01T02:10:20;3.22;;;3.03;;
9986;SDS011;5033;46.310;11.214;2023-02-01T02:13:07;3.33;;;3.13;;
9986;SDS011;5033;46.310;11.214;2023-02-01T02:15:35;3.13;;;2.92;;
9986;SDS011;5033;46.310;11.214;2023-02-01T02:18:09;2.97;;;2.78;;
9986;SDS011;5033;46.310;11.214;2023-02-01T02:23:56;3.28;;;3.08;;
9986;SDS011;5033;46.310;11.214;2023-02-01T02:26:56;3.60;;;3.40;;
9986;SDS011;5033;46.310;11.214;2023-02-01T02:33:12;3.13;;;2.95;;
9986;SDS011;5033;46.310;11.214;2023-02-01T02:35:46;3.40;;;3.20;;
9986;SDS011;5033;46.310;11.214;2023-02-01T02:38:23;3.20;;;3.00;;
9986;SDS011;5033;46.310;11.214;2023-02-01T02:40:57;3.13;;;2.92;;
9986;SDS011;5033;46.310;11.214;2023-02-01T02:43:34;2.97;;;2.88;;
9986;SDS011;5033;46.310;11.214;2023-02-01T02:46:25;3.50;;;3.30;;
9986;SDS011;5033;46.310;11.214;2023-02-01T02:49:18;3.08;;;2.88;;
9986;SDS011;5033;46.310;11.214;2023-02-01T02:51:50;3.03;;;2.90;;
9986;SDS011;5033;46.310;11.214;2023-02-01T02:54:40;2.90;;;2.70;;
9986;SDS011;5033;46.310;11.214;2023-02-01T02:57:17;3.45;;;3.25;;
9986;SDS011;5033;46.310;11.214;2023-02-01T03:00:04;2.90;;;2.78;;
9986;SDS011;5033;46.310;11.214;2023-02-01T03:02:52;3.42;;;3.22;;
9986;SDS011;5033;46.310;11.214;2023-02-01T03:05:40;3.17;;;3.03;;
9986;SDS011;5033;46.310;11.214;2023-02-01T03:08:09;3.30;;;3.10;;
9986;SDS011;5033;46.310;11.214;2023-02-01T03:10:42;2.90;;;2.80;;
9986;SDS011;5033;46.310;11.214;2023-02-01T03:13:16;2.97;;;2.88;;
9986;SDS011;5033;46.310;11.214;2023-02-01T03:15:50;2.97;;;2.88;;
9986;SDS011;5033;46.310;11.214;2023-02-01T03:18:25;3.00;;;2.80;;
9986;SDS011;5033;46.310;11.214;2023-02-01T03:20:57;3.30;;;3.10;;
9986;SDS011;5033;46.310;11.214;2023-02-01T03:23:30;3.00;;;2.80;;
9986;SDS011;5033;46.310;11.214;2023-02-01T03:25:59;3.33;;;3.10;;
9986;SDS011;5033;46.310;11.214;2023-02-01T03:28:29;3.13;;;3.03;;
9986;SDS011;5033;46.310;11.214;2023-02-01T03:30:59;3.60;;;3.40;;
9986;SDS011;5033;46.310;11.214;2023-02-01T03:33:27;3.05;;;2.85;;
9986;SDS011;5033;46.310;11.214;2023-02-01T03:38:47;3.03;;;2.83;;
9986;SDS011;5033;46.310;11.214;2023-02-01T03:41:23;3.38;;;3.17;;
9986;SDS011;5033;46.310;11.214;2023-02-01T03:43:56;3.13;;;2.92;;
9986;SDS011;5033;46.310;11.214;2023-02-01T03:46:29;3.13;;;3.03;;
9986;SDS011;5033;46.310;11.214;2023-02-01T03:49:00;3.50;;;3.30;;
9986;SDS011;5033;46.310;11.214;2023-02-01T03:51:32;3.22;;;3.03;;
9986;SDS011;5033;46.310;11.214;2023-02-01T03:54:02;2.85;;;2.75;;
9986;SDS011;5033;46.310;11.214;2023-02-01T03:56:31;2.80;;;2.70;;
9986;SDS011;5033;46.310;11.214;2023-02-01T03:59:01;3.13;;;2.92;;
9986;SDS011;5033;46.310;11.214;2023-02-01T04:01:29;3.30;;;3.10;;
9986;SDS011;5033;46.310;11.214;2023-02-01T04:03:57;2.85;;;2.75;;
9986;SDS011;5033;46.310;11.214;2023-02-01T04:06:25;2.97;;;2.88;;
9986;SDS011;5033;46.310;11.214;2023-02-01T04:08:53;2.90;;;2.70;;
9986;SDS011;5033;46.310;11.214;2023-02-01T04:11:20;3.05;;;2.85;;
9986;SDS011;5033;46.310;11.214;2023-02-01T04:13:47;3.08;;;2.92;;
9986;SDS011;5033;46.310;11.214;2023-02-01T04:16:14;2.97;;;2.88;;
9986;SDS011;5033;46.310;11.214;2023-02-01T04:18:41;3.47;;;3.28;;
9986;SDS011;5033;46.310;11.214;2023-02-01T04:21:08;3.30;;;3.10;;
9986;SDS011;5033;46.310;11.214;2023-02-01T04:23:35;3.05;;;2.95;;
9986;SDS011;5033;46.310;11.214;2023-02-01T04:26:04;3.28;;;3.08;;
9986;SDS011;5033;46.310;11.214;2023-02-01T04:28:31;2.90;;;2.80;;
9986;SDS011;5033;46.310;11.214;2023-02-01T04:30:58;2.80;;;2.70;;
9986;SDS011;5033;46.310;11.214;2023-02-01T04:33:26;3.00;;;2.90;;
9986;SDS011;5033;46.310;11.214;2023-02-01T04:35:53;2.88;;;2.78;;
9986;SDS011;5033;46.310;11.214;2023-02-01T04:38:20;4.15;;;3.75;;
9986;SDS011;5033;46.310;11.214;2023-02-01T04:40:47;3.80;;;3.60;;
9986;SDS011;5033;46.310;11.214;2023-02-01T04:43:16;3.80;;;3.60;;
9986;SDS011;5033;46.310;11.214;2023-02-01T04:45:46;3.28;;;3.08;;
9986;SDS011;5033;46.310;11.214;2023-02-01T04:48:14;3.80;;;3.60;;
9986;SDS011;5033;46.310;11.214;2023-02-01T04:50:43;4.25;;;3.85;;
9986;SDS011;5033;46.310;11.214;2023-02-01T04:53:12;3.90;;;3.60;;
9986;SDS011;5033;46.310;11.214;2023-02-01T04:55:39;3.67;;;3.47;;
9986;SDS011;5033;46.310;11.214;2023-02-01T04:58:06;3.45;;;3.25;;
9986;SDS011;5033;46.310;11.214;2023-02-01T05:00:35;3.63;;;3.42;;
9986;SDS011;5033;46.310;11.214;2023-02-01T05:03:02;3.63;;;3.40;;
9986;SDS011;5033;46.310;11.214;2023-02-01T05:05:30;3.70;;;3.42;;
9986;SDS011;5033;46.310;11.214;2023-02-01T05:07:57;3.53;;;3.33;;
9986;SDS011;5033;46.310;11.214;2023-02-01T05:10:24;3.58;;;3.38;;
9986;SDS011;5033;46.310;11.214;2023-02-01T05:12:51;3.60;;;3.40;;
9986;SDS011;5033;46.310;11.214;2023-02-01T05:15:37;3.38;;;3.22;;
9986;SDS011;5033;46.310;11.214;2023-02-01T05:18:04;3.33;;;3.13;;
9986;SDS011;5033;46.310;11.214;2023-02-01T05:20:31;3.78;;;3.58;;
9986;SDS011;5033;46.310;11.214;2023-02-01T05:22:59;3.13;;;3.03;;
9986;SDS011;5033;46.310;11.214;2023-02-01T05:25:26;3.22;;;3.03;;
9986;SDS011;5033;46.310;11.214;2023-02-01T05:27:53;3.30;;;3.10;;
9986;SDS011;5033;46.310;11.214;2023-02-01T05:30:21;3.10;;;3.00;;
9986;SDS011;5033;46.310;11.214;2023-02-01T05:32:50;3.15;;;3.03;;
9986;SDS011;5033;46.310;11.214;2023-02-01T05:35:18;3.40;;;3.20;;
9986;SDS011;5033;46.310;11.214;2023-02-01T05:37:45;3.40;;;3.10;;
9986;SDS011;5033;46.310;11.214;2023-02-01T05:40:12;3.30;;;3.20;;
9986;SDS011;5033;46.310;11.214;2023-02-01T05:42:39;3.55;;;3.38;;
9986;SDS011;5033;46.310;11.214;2023-02-01T05:45:07;3.60;;;3.30;;
9986;SDS011;5033;46.310;11.214;2023-02-01T05:47:34;3.33;;;3.13;;
9986;SDS011;5033;46.310;11.214;2023-02-01T05:50:04;2.97;;;2.88;;
9986;SDS011;5033;46.310;11.214;2023-02-01T05:52:33;3.58;;;3.28;;
9986;SDS011;5033;46.310;11.214;2023-02-01T05:55:00;3.15;;;2.95;;
9986;SDS011;5033;46.310;11.214;2023-02-01T05:57:27;3.20;;;3.00;;
9986;SDS011;5033;46.310;11.214;2023-02-01T05:59:55;4.18;;;3.92;;
9986;SDS011;5033;46.310;11.214;2023-02-01T06:02:22;3.60;;;3.40;;
9986;SDS011;5033;46.310;11.214;2023-02-01T06:04:49;3.67;;;3.47;;
9986;SDS011;5033;46.310;11.214;2023-02-01T06:07:17;4.10;;;3.80;;
9986;SDS011;5033;46.310;11.214;2023-02-01T06:09:44;3.47;;;3.15;;
9986;SDS011;5033;46.310;11.214;2023-02-01T06:12:11;3.35;;;3.15;;
9986;SDS011;5033;46.310;11.214;2023-02-01T06:14:38;3.60;;;3.40;;
9986;SDS011;5033;46.310;11.214;2023-02-01T06:17:06;3.60;;;3.40;;
9986;SDS011;5033;46.310;11.214;2023-02-01T06:19:33;3.72;;;3.53;;
9986;SDS011;5033;46.310;11.214;2023-02-01T06:22:00;3.50;;;3.30;;
9986;SDS011;5033;46.310;11.214;2023-02-01T06:24:32;3.22;;;3.13;;
9986;SDS011;5033;46.310;11.214;2023-02-01T06:26:59;3.20;;;3.10;;
9986;SDS011;5033;46.310;11.214;2023-02-01T06:29:26;3.55;;;3.35;;
9986;SDS011;5033;46.310;11.214;2023-02-01T06:31:53;4.07;;;3.78;;
9986;SDS011;5033;46.310;11.214;2023-02-01T06:34:20;4.05;;;3.75;;
9986;SDS011;5033;46.310;11.214;2023-02-01T06:36:49;4.05;;;3.70;;
9986;SDS011;5033;46.310;11.214;2023-02-01T06:39:16;3.90;;;3.60;;
9986;SDS011;5033;46.310;11.214;2023-02-01T06:41:46;3.85;;;3.65;;
9986;SDS011;5033;46.310;11.214;2023-02-01T06:44:14;3.92;;;3.72;;
9986;SDS011;5033;46.310;11.214;2023-02-01T06:46:41;3.60;;;3.40;;
9986;SDS011;5033;46.310;11.214;2023-02-01T06:49:08;3.50;;;3.30;;
9986;SDS011;5033;46.310;11.214;2023-02-01T06:51:35;3.15;;;2.95;;
9986;SDS011;5033;46.310;11.214;2023-02-01T06:54:02;4.10;;;3.88;;
9986;SDS011;5033;46.310;11.214;2023-02-01T06:56:29;3.80;;;3.53;;
9986;SDS011;5033;46.310;11.214;2023-02-01T06:58:59;3.50;;;3.30;;
9986;SDS011;5033;46.310;11.214;2023-02-01T07:01:26;3.90;;;3.70;;
9986;SDS011;5033;46.310;11.214;2023-02-01T07:03:53;3.70;;;3.50;;
9986;SDS011;5033;46.310;11.214;2023-02-01T07:06:21;3.55;;;3.35;;
9986;SDS011;5033;46.310;11.214;2023-02-01T07:08:48;3.20;;;3.08;;
9986;SDS011;5033;46.310;11.214;2023-02-01T07:11:15;3.53;;;3.33;;
9986;SDS011;5033;46.310;11.214;2023-02-01T07:13:44;3.72;;;3.42;;
9986;SDS011;5033;46.310;11.214;2023-02-01T07:16:13;3.65;;;3.45;;
9986;SDS011;5033;46.310;11.214;2023-02-01T07:18:44;3.55;;;3.35;;
9986;SDS011;5033;46.310;11.214;2023-02-01T07:21:12;3.33;;;3.13;;
9986;SDS011;5033;46.310;11.214;2023-02-01T07:23:39;3.50;;;3.30;;
9986;SDS011;5033;46.310;11.214;2023-02-01T07:26:08;3.80;;;3.60;;
9986;SDS011;5033;46.310;11.214;2023-02-01T07:28:37;3.55;;;3.35;;
9986;SDS011;5033;46.310;11.214;2023-02-01T07:31:04;3.13;;;2.90;;
9986;SDS011;5033;46.310;11.214;2023-02-01T07:33:34;3.40;;;3.30;;
9986;SDS011;5033;46.310;11.214;2023-02-01T07:36:02;3.25;;;3.05;;
9986;SDS011;5033;46.310;11.214;2023-02-01T07:38:31;3.83;;;3.55;;
9986;SDS011;5033;46.310;11.214;2023-02-01T07:40:58;3.75;;;3.55;;
9986;SDS011;5033;46.310;11.214;2023-02-01T07:43:26;3.42;;;3.28;;
9986;SDS011;5033;46.310;11.214;2023-02-01T07:45:54;3.75;;;3.55;;
9986;SDS011;5033;46.310;11.214;2023-02-01T07:48:22;4.03;;;3.80;;
9986;SDS011;5033;46.310;11.214;2023-02-01T07:50:58;3.72;;;3.53;;
9986;SDS011;5033;46.310;11.214;2023-02-01T07:53:25;3.42;;;3.22;;
9986;SDS011;5033;46.310;11.214;2023-02-01T07:55:52;5.30;;;4.95;;
9986;SDS011;5033;46.310;11.214;2023-02-01T07:58:21;5.95;;;5.55;;
9986;SDS011;5033;46.310;11.214;2023-02-01T08:00:48;5.55;;;5.10;;
9986;SDS011;5033;46.310;11.214;2023-02-01T08:03:32;4.95;;;4.55;;
9986;SDS011;5033;46.310;11.214;2023-02-01T08:06:01;6.32;;;5.82;;
9986;SDS011;5033;46.310;11.214;2023-02-01T08:08:29;6.00;;;5.45;;
9986;SDS011;5033;46.310;11.214;2023-02-01T08:10:57;4.82;;;4.30;;
9986;SDS011;5033;46.310;11.214;2023-02-01T08:13:25;4.35;;;4.05;;
9986;SDS011;5033;46.310;11.214;2023-02-01T08:15:52;3.53;;;3.22;;
9986;SDS011;5033;46.310;11.214;2023-02-01T08:18:23;3.47;;;3.28;;
9986;SDS011;5033;46.310;11.214;2023-02-01T08:20:50;9.48;;;3.92;;
9986;SDS011;5033;46.310;11.214;2023-02-01T08:23:19;4.38;;;4.07;;
9986;SDS011;5033;46.310;11.214;2023-02-01T08:25:46;3.97;;;3.75;;
9986;SDS011;5033;46.310;11.214;2023-02-01T08:28:13;3.80;;;3.50;;
9986;SDS011;5033;46.310;11.214;2023-02-01T08:30:41;4.28;;;3.70;;
9986;SDS011;5033;46.310;11.214;2023-02-01T08:33:08;4.32;;;4.03;;
9986;SDS011;5033;46.310;11.214;2023-02-01T08:35:37;4.47;;;4.07;;
9986;SDS011;5033;46.310;11.214;2023-02-01T08:38:04;5.50;;;3.85;;
9986;SDS011;5033;46.310;11.214;2023-02-01T08:40:33;4.40;;;3.97;;
9986;SDS011;5033;46.310;11.214;2023-02-01T08:43:00;3.72;;;3.42;;
9986;SDS011;5033;46.310;11.214;2023-02-01T08:45:28;4.20;;;3.80;;
9986;SDS011;5033;46.310;11.214;2023-02-01T08:47:55;4.93;;;3.63;;
9986;SDS011;5033;46.310;11.214;2023-02-01T08:50:23;4.05;;;3.67;;
9986;SDS011;5033;46.310;11.214;2023-02-01T08:52:51;3.88;;;3.30;;
9986;SDS011;5033;46.310;11.214;2023-02-01T08:55:19;4.30;;;3.08;;
9986;SDS011;5033;46.310;11.214;2023-02-01T08:57:48;2.95;;;2.70;;
9986;SDS011;5033;46.310;11.214;2023-02-01T09:00:15;3.47;;;3.00;;
9986;SDS011;5033;46.310;11.214;2023-02-01T09:02:44;3.55;;;3.25;;
9986;SDS011;5033;46.310;11.214;2023-02-01T09:05:11;4.07;;;3.45;;
9986;SDS011;5033;46.310;11.214;2023-02-01T09:07:41;6.85;;;4.03;;
9986;SDS011;5033;46.310;11.214;2023-02-01T09:10:09;5.53;;;3.85;;
9986;SDS011;5033;46.310;11.214;2023-02-01T09:12:37;4.55;;;4.15;;
9986;SDS011;5033;46.310;11.214;2023-02-01T09:15:07;4.40;;;3.75;;
9986;SDS011;5033;46.310;11.214;2023-02-01T09:17:35;4.35;;;3.58;;
9986;SDS011;5033;46.310;11.214;2023-02-01T09:20:02;5.28;;;3.95;;
9986;SDS011;5033;46.310;11.214;2023-02-01T09:22:30;3.40;;;3.10;;
9986;SDS011;5033;46.310;11.214;2023-02-01T09:24:57;4.18;;;3.78;;
9986;SDS011;5033;46.310;11.214;2023-02-01T09:27:24;4.00;;;3.60;;
9986;SDS011;5033;46.310;11.214;2023-02-01T09:29:51;3.50;;;3.17;;
9986;SDS011;5033;46.310;11.214;2023-02-01T09:32:20;4.82;;;4.05;;
9986;SDS011;5033;46.310;11.214;2023-02-01T09:34:48;5.45;;;3.88;;
9986;SDS011;5033;46.310;11.214;2023-02-01T09:37:15;5.13;;;3.97;;
9986;SDS011;5033;46.310;11.214;2023-02-01T09:39:42;5.90;;;4.28;;
9986;SDS011;5033;46.310;11.214;2023-02-01T09:42:16;4.13;;;3.72;;
9986;SDS011;5033;46.310;11.214;2023-02-01T09:44:55;5.10;;;3.65;;
9986;SDS011;5033;46.310;11.214;2023-02-01T09:47:32;5.90;;;3.28;;
9986;SDS011;5033;46.310;11.214;2023-02-01T09:50:09;5.47;;;3.58;;
9986;SDS011;5033;46.310;11.214;2023-02-01T09:52:43;4.78;;;4.18;;
9986;SDS011;5033;46.310;11.214;2023-02-01T09:55:15;5.68;;;4.03;;
9986;SDS011;5033;46.310;11.214;2023-02-01T09:57:47;5.03;;;3.72;;
9986;SDS011;5033;46.310;11.214;2023-02-01T10:00:20;4.38;;;3.60;;
9986;SDS011;5033;46.310;11.214;2023-02-01T10:02:52;7.35;;;4.45;;
9986;SDS011;5033;46.310;11.214;2023-02-01T10:05:23;5.72;;;4.32;;
9986;SDS011;5033;46.310;11.214;2023-02-01T10:08:19;6.75;;;4.10;;
9986;SDS011;5033;46.310;11.214;2023-02-01T10:10:52;7.28;;;4.03;;
9986;SDS011;5033;46.310;11.214;2023-02-01T10:13:35;4.25;;;3.78;;
9986;SDS011;5033;46.310;11.214;2023-02-01T10:16:17;4.22;;;3.63;;
9986;SDS011;5033;46.310;11.214;2023-02-01T10:18:57;3.78;;;3.47;;
9986;SDS011;5033;46.310;11.214;2023-02-01T10:21:47;6.72;;;4.20;;
9986;SDS011;5033;46.310;11.214;2023-02-01T10:27:11;6.88;;;3.25;;
9986;SDS011;5033;46.310;11.214;2023-02-01T10:29:41;4.30;;;3.90;;
9986;SDS011;5033;46.310;11.214;2023-02-01T10:32:12;8.40;;;3.42;;
9986;SDS011;5033;46.310;11.214;2023-02-01T10:34:42;4.43;;;3.58;;
9986;SDS011;5033;46.310;11.214;2023-02-01T10:37:23;4.10;;;3.70;;
9986;SDS011;5033;46.310;11.214;2023-02-01T10:39:55;6.55;;;3.88;;
9986;SDS011;5033;46.310;11.214;2023-02-01T10:42:25;4.90;;;3.60;;
9986;SDS011;5033;46.310;11.214;2023-02-01T10:44:54;4.30;;;3.40;;
9986;SDS011;5033;46.310;11.214;2023-02-01T10:47:24;3.88;;;3.35;;
9986;SDS011;5033;46.310;11.214;2023-02-01T10:49:54;4.60;;;3.30;;
9986;SDS011;5033;46.310;11.214;2023-02-01T10:52:29;5.70;;;3.28;;
9986;SDS011;5033;46.310;11.214;2023-02-01T10:58:04;4.78;;;3.75;;
9986;SDS011;5033;46.310;11.214;2023-02-01T11:00:41;4.15;;;3.33;;
9986;SDS011;5033;46.310;11.214;2023-02-01T11:06:13;3.90;;;3.55;;
9986;SDS011;5033;46.310;11.214;2023-02-01T11:08:45;3.33;;;3.03;;
9986;SDS011;5033;46.310;11.214;2023-02-01T11:11:14;4.47;;;3.78;;
9986;SDS011;5033;46.310;11.214;2023-02-01T11:13:42;5.13;;;4.30;;
9986;SDS011;5033;46.310;11.214;2023-02-01T11:16:11;5.22;;;4.38;;
9986;SDS011;5033;46.310;11.214;2023-02-01T11:18:40;5.15;;;3.60;;
9986;SDS011;5033;46.310;11.214;2023-02-01T11:21:08;4.90;;;4.07;;
9986;SDS011;5033;46.310;11.214;2023-02-01T11:23:41;4.05;;;3.75;;
9986;SDS011;5033;46.310;11.214;2023-02-01T11:26:11;4.55;;;3.70;;
9986;SDS011;5033;46.310;11.214;2023-02-01T11:28:43;5.00;;;4.10;;
9986;SDS011;5033;46.310;11.214;2023-02-01T11:31:18;4.57;;;4.10;;
9986;SDS011;5033;46.310;11.214;2023-02-01T11:33:47;4.95;;;3.70;;
9986;SDS011;5033;46.310;11.214;2023-02-01T11:36:20;4.15;;;3.25;;
9986;SDS011;5033;46.310;11.214;2023-02-01T11:38:53;5.30;;;3.10;;
9986;SDS011;5033;46.310;11.214;2023-02-01T11:41:33;3.38;;;3.08;;
9986;SDS011;5033;46.310;11.214;2023-02-01T11:44:01;5.45;;;3.13;;
9986;SDS011;5033;46.310;11.214;2023-02-01T11:46:42;4.07;;;3.50;;
9986;SDS011;5033;46.310;11.214;2023-02-01T11:49:19;3.97;;;3.30;;
9986;SDS011;5033;46.310;11.214;2023-02-01T11:51:50;5.03;;;3.45;;
9986;SDS011;5033;46.310;11.214;2023-02-01T11:54:31;4.18;;;2.63;;
9986;SDS011;5033;46.310;11.214;2023-02-01T11:57:11;4.07;;;3.25;;
9986;SDS011;5033;46.310;11.214;2023-02-01T11:59:57;3.80;;;3.40;;
9986;SDS011;5033;46.310;11.214;2023-02-01T12:02:38;4.63;;;3.78;;
9986;SDS011;5033;46.310;11.214;2023-02-01T12:05:24;4.03;;;3.00;;
9986;SDS011;5033;46.310;11.214;2023-02-01T12:08:06;3.85;;;3.45;;
9986;SDS011;5033;46.310;11.214;2023-02-01T12:10:52;4.60;;;3.35;;
9986;SDS011;5033;46.310;11.214;2023-02-01T12:13:35;4.70;;;3.35;;
9986;SDS011;5033;46.310;11.214;2023-02-01T12:16:16;3.58;;;3.25;;
9986;SDS011;5033;46.310;11.214;2023-02-01T12:19:02;4.53;;;3.08;;
9986;SDS011;5033;46.310;11.214;2023-02-01T12:21:55;4.18;;;2.90;;
9986;SDS011;5033;46.310;11.214;2023-02-01T12:24:37;3.05;;;2.70;;
9986;SDS011;5033;46.310;11.214;2023-02-01T12:27:21;3.70;;;3.28;;
9986;SDS011;5033;46.310;11.214;2023-02-01T12:30:03;3.40;;;2.50;;
9986;SDS011;5033;46.310;11.214;2023-02-01T12:32:53;2.42;;;2.22;;
9986;SDS011;5033;46.310;11.214;2023-02-01T12:35:38;3.13;;;2.75;;
9986;SDS011;5033;46.310;11.214;2023-02-01T12:38:20;3.25;;;3.00;;
9986;SDS011;5033;46.310;11.214;2023-02-01T12:41:08;3.25;;;2.60;;
9986;SDS011;5033;46.310;11.214;2023-02-01T12:43:55;3.50;;;3.17;;
9986;SDS011;5033;46.310;11.214;2023-02-01T12:46:26;2.92;;;2.63;;
9986;SDS011;5033;46.310;11.214;2023-02-01T12:48:58;3.00;;;2.53;;
9986;SDS011;5033;46.310;11.214;2023-02-01T12:51:28;3.17;;;2.88;;
9986;SDS011;5033;46.310;11.214;2023-02-01T12:54:00;3.47;;;2.50;;
9986;SDS011;5033;46.310;11.214;2023-02-01T12:56:31;3.10;;;2.83;;
9986;SDS011;5033;46.310;11.214;2023-02-01T12:59:05;4.05;;;2.50;;
9986;SDS011;5033;46.310;11.214;2023-02-01T13:01:40;2.67;;;2.42;;
9986;SDS011;5033;46.310;11.214;2023-02-01T13:04:12;3.15;;;2.85;;
9986;SDS011;5033;46.310;11.214;2023-02-01T13:06:45;2.80;;;2.60;;
9986;SDS011;5033;46.310;11.214;2023-02-01T13:09:20;2.83;;;2.60;;
9986;SDS011;5033;46.310;11.214;2023-02-01T13:11:53;3.08;;;2.78;;
9986;SDS011;5033;46.310;11.214;2023-02-01T13:14:27;3.63;;;2.72;;
9986;SDS011;5033;46.310;11.214;2023-02-01T13:17:04;3.95;;;2.70;;
9986;SDS011;5033;46.310;11.214;2023-02-01T13:19:37;3.45;;;2.72;;
9986;SDS011;5033;46.310;11.214;2023-02-01T13:22:12;3.60;;;2.88;;
9986;SDS011;5033;46.310;11.214;2023-02-01T13:24:44;2.78;;;2.58;;
9986;SDS011;5033;46.310;11.214;2023-02-01T13:27:15;2.60;;;2.40;;
9986;SDS011;5033;46.310;11.214;2023-02-01T13:29:46;3.25;;;2.58;;
9986;SDS011;5033;46.310;11.214;2023-02-01T13:38:33;3.72;;;2.53;;
9986;SDS011;5033;46.310;11.214;2023-02-01T13:41:21;3.72;;;2.70;;
9986;SDS011;5033;46.310;11.214;2023-02-01T13:43:54;5.05;;;2.72;;
9986;SDS011;5033;46.310;11.214;2023-02-01T13:46:27;2.78;;;2.50;;
9986;SDS011;5033;46.310;11.214;2023-02-01T13:48:56;2.58;;;2.35;;
9986;SDS011;5033;46.310;11.214;2023-02-01T13:51:34;3.08;;;2.72;;
9986;SDS011;5033;46.310;11.214;2023-02-01T13:54:03;2.60;;;2.10;;
9986;SDS011;5033;46.310;11.214;2023-02-01T13:56:39;3.22;;;2.42;;
9986;SDS011;5033;46.310;11.214;2023-02-01T14:08:44;2.90;;;2.40;;
9986;SDS011;5033;46.310;11.214;2023-02-01T14:11:32;2.50;;;2.30;;
9986;SDS011;5033;46.310;11.214;2023-02-01T14:23:10;2.78;;;2.58;;
9986;SDS011;5033;46.310;11.214;2023-02-01T14:25:40;3.13;;;2.83;;
9986;SDS011;5033;46.310;11.214;2023-02-01T14:28:12;3.28;;;2.90;;
9986;SDS011;5033;46.310;11.214;2023-02-01T14:30:48;4.68;;;3.70;;
9986;SDS011;5033;46.310;11.214;2023-02-01T14:33:18;4.47;;;2.72;;
9986;SDS011;5033;46.310;11.214;2023-02-01T14:36:00;3.33;;;2.15;;
9986;SDS011;5033;46.310;11.214;2023-02-01T14:38:33;2.20;;;2.05;;
9986;SDS011;5033;46.310;11.214;2023-02-01T14:47:04;2.95;;;2.40;;
9986;SDS011;5033;46.310;11.214;2023-02-01T14:50:00;3.40;;;2.75;;
9986;SDS011;5033;46.310;11.214;2023-02-01T14:53:04;4.68;;;2.20;;
9986;SDS011;5033;46.310;11.214;2023-02-01T14:55:49;2.47;;;1.98;;
9986;SDS011;5033;46.310;11.214;2023-02-01T14:58:25;2.45;;;2.25;;
9986;SDS011;5033;46.310;11.214;2023-02-01T15:01:00;2.65;;;2.35;;
9986;SDS011;5033;46.310;11.214;2023-02-01T15:03:34;2.30;;;2.10;;
9986;SDS011;5033;46.310;11.214;2023-02-01T15:06:23;2.42;;;2.22;;
9986;SDS011;5033;46.310;11.214;2023-02-01T15:08:55;2.33;;;2.20;;
9986;SDS011;5033;46.310;11.214;2023-02-01T15:11:26;2.05;;;1.90;;
9986;SDS011;5033;46.310;11.214;2023-02-01T15:13:53;2.40;;;2.20;;
9986;SDS011;5033;46.310;11.214;2023-02-01T15:16:22;2.45;;;2.25;;
9986;SDS011;5033;46.310;11.214;2023-02-01T15:18:50;2.53;;;2.42;;
9986;SDS011;5033;46.310;11.214;2023-02-01T15:21:41;3.00;;;2.70;;
9986;SDS011;5033;46.310;11.214;2023-02-01T15:24:12;5.55;;;3.20;;
9986;SDS011;5033;46.310;11.214;2023-02-01T15:26:41;2.80;;;2.55;;
9986;SDS011;5033;46.310;11.214;2023-02-01T15:29:11;3.05;;;2.65;;
9986;SDS011;5033;46.310;11.214;2023-02-01T15:31:40;4.28;;;2.90;;
9986;SDS011;5033;46.310;11.214;2023-02-01T15:34:09;4.25;;;3.47;;
9986;SDS011;5033;46.310;11.214;2023-02-01T15:36:37;4.72;;;3.95;;
9986;SDS011;5033;46.310;11.214;2023-02-01T15:39:13;3.67;;;3.35;;
9986;SDS011;5033;46.310;11.214;2023-02-01T15:41:44;3.88;;;3.45;;
9986;SDS011;5033;46.310;11.214;2023-02-01T15:44:17;3.75;;;3.45;;
9986;SDS011;5033;46.310;11.214;2023-02-01T15:46:47;3.63;;;3.00;;
9986;SDS011;5033;46.310;11.214;2023-02-01T15:49:17;3.30;;;2.85;;
9986;SDS011;5033;46.310;11.214;2023-02-01T15:51:47;2.88;;;2.60;;
9986;SDS011;5033;46.310;11.214;2023-02-01T15:54:17;2.95;;;2.75;;
9986;SDS011;5033;46.310;11.214;2023-02-01T15:56:49;2.67;;;2.47;;
9986;SDS011;5033;46.310;11.214;2023-02-01T15:59:19;2.50;;;2.30;;
9986;SDS011;5033;46.310;11.214;2023-02-01T16:01:49;2.33;;;2.13;;
9986;SDS011;5033;46.310;11.214;2023-02-01T16:04:17;2.50;;;2.30;;
9986;SDS011;5033;46.310;11.214;2023-02-01T16:06:47;4.00;;;2.10;;
9986;SDS011;5033;46.310;11.214;2023-02-01T16:09:18;2.70;;;2.50;;
9986;SDS011;5033;46.310;11.214;2023-02-01T16:11:48;2.60;;;2.40;;
9986;SDS011;5033;46.310;11.214;2023-02-01T16:14:19;3.00;;;2.70;;
9986;SDS011;5033;46.310;11.214;2023-02-01T16:16:46;5.72;;;2.92;;